Time;durP1;ratioP1;P1;durP2;ratioP2;P2;SDS_P1;SDS_P2;PMS_P1;PMS_P2;Temp;Humidity;BMP_temperature;BMP_pressure;BME280_temperature;BME280_humidity;BME280_pressure;Samples;Min_cycle;Max_cycle;Signal;HPM_P1;HPM_P2
2021/11/08 00:01:46;;;;;;;19.33;6.23;;;;;;;;;;4996465;28;20489;-50
2021/11/08 00:04:12;;;;;;;19.08;7.70;;;;;;;;;;4995667;28;20408;-50
2021/11/08 00:06:38;;;;;;;32.08;8.77;;;;;;;;;;4995508;28;20227;-50
2021/11/08 00:09:05;;;;;;;21.15;6.50;;;;;;;;;;4995336;28;20743;-52
2021/11/08 00:11:32;;;;;;;17.77;7.00;;;;;;;;;;4995639;28;20173;-49
2021/11/08 00:13:58;;;;;;;21.23;7.83;;;;;;;;;;4995511;28;20906;-49
2021/11/08 00:16:42;;;;;;;19.97;6.93;;;;;;;;;;4995383;28;20436;-49
2021/11/08 00:19:37;;;;;;;17.13;7.07;;;;;;;;;;4995198;28;20415;-50
2021/11/08 00:22:03;;;;;;;18.90;7.53;;;;;;;;;;4995380;28;20404;-49
2021/11/08 00:24:32;;;;;;;12.20;7.00;;;;;;;;;;4995491;28;20405;-49
2021/11/08 00:27:00;;;;;;;19.30;6.70;;;;;;;;;;4996051;28;20608;-47
2021/11/08 00:29:26;;;;;;;25.97;7.87;;;;;;;;;;4994952;28;20459;-50
2021/11/08 00:31:52;;;;;;;17.50;6.43;;;;;;;;;;4995192;28;20451;-49
2021/11/08 00:34:18;;;;;;;18.05;6.43;;;;;;;;;;4995190;28;20865;-49
2021/11/08 00:36:44;;;;;;;20.30;7.73;;;;;;;;;;4994903;28;20775;-49
2021/11/08 00:39:10;;;;;;;15.77;6.83;;;;;;;;;;4994912;28;20436;-51
2021/11/08 00:41:36;;;;;;;24.37;6.90;;;;;;;;;;4995027;28;20415;-51
2021/11/08 00:44:03;;;;;;;23.63;7.33;;;;;;;;;;4995022;28;20856;-49
2021/11/08 00:46:29;;;;;;;13.60;6.17;;;;;;;;;;4994786;28;20448;-50
2021/11/08 00:48:55;;;;;;;15.63;6.70;;;;;;;;;;4994586;28;20490;-52
2021/11/08 00:51:21;;;;;;;16.93;7.57;;;;;;;;;;4994859;28;20437;-49
2021/11/08 00:53:49;;;;;;;20.93;7.63;;;;;;;;;;4994724;28;20403;-51
2021/11/08 00:56:18;;;;;;;32.23;7.60;;;;;;;;;;4994550;28;20905;-49
2021/11/08 00:58:45;;;;;;;16.47;7.40;;;;;;;;;;4994401;28;20406;-52
2021/11/08 01:01:17;;;;;;;14.80;6.93;;;;;;;;;;4994710;28;20413;-51
2021/11/08 01:03:44;;;;;;;25.43;7.83;;;;;;;;;;4994624;28;20461;-49
2021/11/08 01:06:11;;;;;;;28.20;8.80;;;;;;;;;;4994336;28;20426;-50
2021/11/08 01:08:37;;;;;;;13.93;7.17;;;;;;;;;;4994205;28;20481;-49
2021/11/08 01:11:04;;;;;;;17.47;7.37;;;;;;;;;;4994407;28;20965;-49
2021/11/08 01:13:30;;;;;;;19.70;8.23;;;;;;;;;;4994430;28;20897;-50
2021/11/08 01:15:57;;;;;;;20.50;8.10;;;;;;;;;;4994358;28;20446;-50
2021/11/08 01:18:23;;;;;;;16.80;7.27;;;;;;;;;;4994026;28;20780;-50
2021/11/08 01:20:50;;;;;;;28.20;9.27;;;;;;;;;;4994187;28;20408;-50
2021/11/08 01:23:17;;;;;;;22.57;6.63;;;;;;;;;;4994133;28;20951;-49
2021/11/08 01:25:45;;;;;;;18.50;6.80;;;;;;;;;;4994086;28;20898;-50
2021/11/08 01:28:11;;;;;;;35.87;8.90;;;;;;;;;;4993875;28;20412;-52
2021/11/08 01:30:38;;;;;;;14.10;7.10;;;;;;;;;;4994129;28;20460;-51
2021/11/08 01:33:08;;;;;;;20.20;7.37;;;;;;;;;;4994089;28;20401;-51
2021/11/08 01:35:43;;;;;;;14.90;7.20;;;;;;;;;;4993809;28;20418;-51
2021/11/08 01:40:37;;;;;;;17.30;7.83;;;;;;;;;;4994165;28;20411;-50
2021/11/08 01:43:04;;;;;;;17.20;7.00;;;;;;;;;;4993905;28;20405;-49
2021/11/08 01:45:30;;;;;;;18.63;7.10;;;;;;;;;;4993756;28;20846;-51
2021/11/08 01:47:56;;;;;;;17.10;6.93;;;;;;;;;;4993631;28;20416;-50
2021/11/08 01:50:24;;;;;;;22.67;7.10;;;;;;;;;;4993602;28;20949;-52
2021/11/08 01:52:50;;;;;;;19.57;7.03;;;;;;;;;;4993549;28;20416;-50
2021/11/08 01:55:16;;;;;;;17.73;6.33;;;;;;;;;;4993567;28;20440;-49
2021/11/08 01:57:42;;;;;;;28.43;8.13;;;;;;;;;;4993328;28;20458;-50
2021/11/08 02:00:09;;;;;;;21.40;8.17;;;;;;;;;;4993544;28;20417;-49
2021/11/08 02:02:35;;;;;;;16.60;7.43;;;;;;;;;;4992739;28;20443;-50
2021/11/08 02:05:02;;;;;;;27.23;7.20;;;;;;;;;;4992819;28;20877;-52
2021/11/08 02:07:28;;;;;;;18.20;7.70;;;;;;;;;;4992401;28;20843;-51
2021/11/08 02:09:55;;;;;;;16.60;7.60;;;;;;;;;;4993255;28;20462;-51
2021/11/08 02:12:21;;;;;;;28.27;8.10;;;;;;;;;;4993278;28;20404;-49
2021/11/08 02:14:47;;;;;;;14.97;7.40;;;;;;;;;;4993192;28;20413;-52
2021/11/08 02:17:13;;;;;;;19.40;7.80;;;;;;;;;;4992589;28;20479;-50
2021/11/08 02:19:40;;;;;;;26.60;9.07;;;;;;;;;;4992908;28;20406;-49
2021/11/08 02:22:06;;;;;;;13.27;8.00;;;;;;;;;;4993157;28;20489;-49
2021/11/08 02:24:34;;;;;;;17.00;8.10;;;;;;;;;;4993087;28;20764;-49
2021/11/08 02:27:00;;;;;;;17.77;7.83;;;;;;;;;;4992874;28;20420;-50
2021/11/08 02:29:27;;;;;;;21.67;9.90;;;;;;;;;;4992739;28;20458;-50
2021/11/08 02:31:56;;;;;;;16.07;7.97;;;;;;;;;;4992961;28;20402;-52
2021/11/08 02:34:22;;;;;;;24.57;8.93;;;;;;;;;;4992854;28;20411;-50
2021/11/08 02:36:48;;;;;;;21.07;9.10;;;;;;;;;;4992636;28;20447;-51
2021/11/08 02:39:25;;;;;;;20.17;8.37;;;;;;;;;;4992654;28;20473;-49
2021/11/08 02:41:51;;;;;;;24.43;9.37;;;;;;;;;;4992824;28;20452;-50
2021/11/08 02:44:18;;;;;;;22.53;7.57;;;;;;;;;;4992820;28;20422;-49
2021/11/08 02:46:44;;;;;;;21.80;9.17;;;;;;;;;;4992407;28;20506;-49
2021/11/08 02:49:13;;;;;;;23.30;9.60;;;;;;;;;;4992438;28;20462;-49
2021/11/08 02:51:44;;;;;;;23.00;8.90;;;;;;;;;;4992654;28;20413;-49
2021/11/08 02:54:22;;;;;;;26.40;9.10;;;;;;;;;;4992797;28;20455;-51
2021/11/08 02:56:48;;;;;;;24.70;9.90;;;;;;;;;;4992428;28;20431;-49
2021/11/08 02:59:14;;;;;;;18.03;9.77;;;;;;;;;;4992263;28;20779;-51
2021/11/08 03:01:40;;;;;;;28.80;10.20;;;;;;;;;;4992456;28;20404;-49
2021/11/08 03:04:13;;;;;;;23.80;11.10;;;;;;;;;;4992546;28;20497;-51
2021/11/08 03:06:39;;;;;;;32.43;11.10;;;;;;;;;;4992336;28;20550;-50
2021/11/08 03:09:20;;;;;;;28.53;11.20;;;;;;;;;;4992183;28;20549;-51
2021/11/08 03:11:48;;;;;;;21.27;10.50;;;;;;;;;;4992329;28;20402;-51
2021/11/08 03:14:17;;;;;;;23.03;11.20;;;;;;;;;;4992412;28;20411;-51
2021/11/08 03:21:56;;;;;;;21.20;13.40;;;;;;;;;;4992739;28;21231;-51
2021/11/08 03:27:06;;;;;;;29.97;14.07;;;;;;;;;;4992349;28;20438;-50
2021/11/08 03:29:32;;;;;;;36.77;14.77;;;;;;;;;;4993183;28;20460;-49
2021/11/08 03:32:00;;;;;;;21.93;13.70;;;;;;;;;;4996376;28;20409;-51
2021/11/08 03:34:28;;;;;;;31.80;13.60;;;;;;;;;;4996264;28;21036;-49
2021/11/08 03:36:54;;;;;;;30.10;13.10;;;;;;;;;;4995826;28;20833;-49
2021/11/08 03:39:21;;;;;;;31.47;13.10;;;;;;;;;;4995971;28;20463;-50
2021/11/08 03:41:47;;;;;;;24.50;13.23;;;;;;;;;;4996120;28;20406;-52
2021/11/08 03:44:13;;;;;;;30.87;12.97;;;;;;;;;;4996037;28;20915;-50
2021/11/08 03:46:39;;;;;;;44.70;14.40;;;;;;;;;;4995778;28;20487;-50
2021/11/08 03:49:05;;;;;;;21.83;12.33;;;;;;;;;;4995607;28;20455;-49
2021/11/08 03:51:31;;;;;;;23.67;11.90;;;;;;;;;;4995841;28;20938;-51
2021/11/08 03:53:57;;;;;;;30.93;13.40;;;;;;;;;;4995916;28;20406;-51
2021/11/08 03:56:24;;;;;;;23.40;13.47;;;;;;;;;;4995676;28;20786;-49
2021/11/08 03:58:50;;;;;;;32.07;13.17;;;;;;;;;;4995555;28;20405;-51
2021/11/08 04:01:17;;;;;;;29.23;12.83;;;;;;;;;;4995869;28;20444;-51
2021/11/08 04:03:43;;;;;;;28.27;12.80;;;;;;;;;;4995668;28;20404;-49
2021/11/08 04:06:09;;;;;;;28.87;12.97;;;;;;;;;;4995652;28;20999;-51
2021/11/08 04:08:36;;;;;;;27.63;13.10;;;;;;;;;;4995345;28;20587;-49
2021/11/08 04:11:02;;;;;;;25.87;12.90;;;;;;;;;;4995625;28;20417;-49
2021/11/08 04:13:30;;;;;;;26.30;11.83;;;;;;;;;;4995540;28;20489;-50
2021/11/08 04:15:58;;;;;;;30.37;13.87;;;;;;;;;;4995777;28;20524;-52
2021/11/08 04:18:25;;;;;;;27.10;12.23;;;;;;;;;;4995132;28;20410;-51
2021/11/08 04:20:52;;;;;;;34.40;13.73;;;;;;;;;;4995398;28;20411;-49
2021/11/08 04:23:20;;;;;;;21.20;12.23;;;;;;;;;;4995400;28;20401;-51
2021/11/08 04:25:46;;;;;;;24.30;11.80;;;;;;;;;;4995293;28;20426;-49
2021/11/08 04:28:12;;;;;;;32.23;12.87;;;;;;;;;;4994991;28;20412;-51
2021/11/08 04:30:42;;;;;;;29.90;14.10;;;;;;;;;;4995097;28;20453;-50
2021/11/08 04:38:48;;;;;;;33.73;14.90;;;;;;;;;;4994912;28;20184;-51
2021/11/08 04:51:40;;;;;;;31.57;13.30;;;;;;;;;;4995003;28;20436;-50
2021/11/08 05:24:39;;;;;;;36.87;15.30;;;;;;;;;;4994420;28;20437;-51
2021/11/08 05:32:13;;;;;;;40.47;15.20;;;;;;;;;;4994202;28;20463;-51
2021/11/08 05:34:39;;;;;;;31.93;15.53;;;;;;;;;;4994084;28;20889;-51
2021/11/08 05:37:08;;;;;;;35.83;15.23;;;;;;;;;;4993855;28;20445;-51
2021/11/08 05:39:35;;;;;;;44.97;15.80;;;;;;;;;;4993671;28;20429;-49
2021/11/08 05:42:02;;;;;;;40.77;16.23;;;;;;;;;;4993976;28;20416;-51
2021/11/08 05:44:29;;;;;;;41.27;15.93;;;;;;;;;;4994091;28;20934;-50
2021/11/08 05:46:55;;;;;;;36.63;16.20;;;;;;;;;;4993768;28;20979;-50
2021/11/08 05:49:21;;;;;;;42.27;14.97;;;;;;;;;;4993444;28;20480;-49
2021/11/08 05:51:47;;;;;;;52.23;15.30;;;;;;;;;;4993139;28;20471;-50
2021/11/08 05:54:13;;;;;;;27.90;13.93;;;;;;;;;;4993375;28;20392;-51
2021/11/08 05:56:54;;;;;;;38.17;15.50;;;;;;;;;;4993489;28;20418;-49
2021/11/08 06:49:10;;;;;;;36.75;13.88;;;;;;;;;;4992638;28;20552;-47
2021/11/08 06:51:30;;;;;;;31.13;13.27;;;;;;;;;;4992616;28;20181;-47
2021/11/08 06:54:00;;;;;;;35.27;14.43;;;;;;;;;;4992747;28;20908;-47
2021/11/08 06:59:25;;;;;;;26.88;13.30;;;;;;;;;;4992674;28;20407;-50
2021/11/08 07:01:51;;;;;;;42.40;13.73;;;;;;;;;;4992611;28;20176;-47
2021/11/08 07:04:18;;;;;;;31.90;13.77;;;;;;;;;;4992442;28;20641;-48
2021/11/08 07:06:44;;;;;;;40.00;14.40;;;;;;;;;;4992460;28;20250;-50
2021/11/08 07:09:11;;;;;;;27.33;12.98;;;;;;;;;;4992179;28;20451;-48
2021/11/08 07:11:38;;;;;;;27.77;12.97;;;;;;;;;;4992446;28;20169;-48
2021/11/08 07:14:05;;;;;;;35.30;12.27;;;;;;;;;;4992418;28;20894;-50
2021/11/08 07:16:31;;;;;;;31.93;13.23;;;;;;;;;;4992307;28;20419;-48
2021/11/08 07:18:56;;;;;;;32.73;12.67;;;;;;;;;;4992227;28;20396;-50
2021/11/08 07:21:22;;;;;;;34.00;11.83;;;;;;;;;;4992466;28;20463;-47
2021/11/08 07:23:48;;;;;;;39.20;14.33;;;;;;;;;;4992326;28;20404;-47
2021/11/08 07:26:14;;;;;;;29.70;11.90;;;;;;;;;;4986032;28;20443;-47
2021/11/08 07:28:41;;;;;;;36.37;13.10;;;;;;;;;;4990716;28;20564;-47
2021/11/08 07:31:08;;;;;;;25.90;12.43;;;;;;;;;;4992280;28;20487;-47
2021/11/08 07:33:35;;;;;;;35.37;13.50;;;;;;;;;;4992223;28;20954;-47
2021/11/08 07:36:01;;;;;;;26.63;12.87;;;;;;;;;;4992189;28;20443;-48
2021/11/08 07:38:27;;;;;;;28.30;11.37;;;;;;;;;;4991845;28;20396;-47
2021/11/08 07:40:53;;;;;;;32.20;12.20;;;;;;;;;;4992175;28;20408;-47
2021/11/08 07:43:19;;;;;;;30.33;11.77;;;;;;;;;;4992200;28;20904;-48
2021/11/08 07:45:45;;;;;;;32.37;11.73;;;;;;;;;;4991813;28;20435;-49
2021/11/08 07:48:11;;;;;;;30.17;11.47;;;;;;;;;;4989984;28;20413;-48
2021/11/08 07:50:38;;;;;;;43.97;12.10;;;;;;;;;;4990191;28;20824;-49
2021/11/08 07:53:04;;;;;;;30.23;11.90;;;;;;;;;;4990610;28;20807;-48
2021/11/08 07:55:30;;;;;;;21.87;10.17;;;;;;;;;;4990979;28;20559;-48
2021/11/08 07:57:56;;;;;;;21.90;11.27;;;;;;;;;;4991580;28;20406;-47
2021/11/08 08:00:22;;;;;;;35.17;11.70;;;;;;;;;;4991709;28;20417;-47
2021/11/08 08:02:49;;;;;;;34.70;14.10;;;;;;;;;;4991554;28;20410;-48
2021/11/08 08:05:17;;;;;;;31.90;15.90;;;;;;;;;;4990723;28;20460;-48
2021/11/08 08:07:43;;;;;;;23.03;10.83;;;;;;;;;;4990738;28;20461;-47
2021/11/08 08:10:10;;;;;;;24.57;10.07;;;;;;;;;;4991842;28;20462;-48
2021/11/08 08:12:36;;;;;;;30.60;10.90;;;;;;;;;;4991934;28;20908;-47
2021/11/08 08:15:02;;;;;;;24.53;10.20;;;;;;;;;;4991937;28;20404;-47
2021/11/08 08:17:28;;;;;;;27.77;10.87;;;;;;;;;;4995158;28;20510;-47
2021/11/08 08:19:54;;;;;;;21.37;9.80;;;;;;;;;;4995471;28;20498;-49
2021/11/08 08:22:21;;;;;;;17.50;9.53;;;;;;;;;;4995411;28;20916;-48
2021/11/08 08:24:47;;;;;;;20.60;9.40;;;;;;;;;;4995333;28;20408;-50
2021/11/08 08:27:13;;;;;;;21.23;8.67;;;;;;;;;;4995189;28;20432;-51
2021/11/08 08:29:39;;;;;;;17.20;9.50;;;;;;;;;;4995037;28;20849;-47
2021/11/08 08:32:05;;;;;;;21.57;8.27;;;;;;;;;;4995278;28;20778;-48
2021/11/08 08:34:31;;;;;;;15.87;8.67;;;;;;;;;;4995148;28;20404;-48
2021/11/08 08:36:58;;;;;;;18.40;8.60;;;;;;;;;;4994897;28;20443;-47
2021/11/08 08:39:24;;;;;;;24.10;9.30;;;;;;;;;;4994812;28;20415;-48
2021/11/08 08:41:51;;;;;;;20.80;9.50;;;;;;;;;;4995089;28;20408;-47
2021/11/08 08:44:17;;;;;;;14.33;8.70;;;;;;;;;;4995031;28;20404;-47
2021/11/08 08:46:44;;;;;;;24.43;10.20;;;;;;;;;;4994834;28;20435;-48
2021/11/08 08:49:11;;;;;;;19.13;8.60;;;;;;;;;;4994540;28;20447;-48
2021/11/08 08:51:38;;;;;;;19.83;7.70;;;;;;;;;;4994880;28;20884;-48
2021/11/08 08:54:04;;;;;;;17.60;8.50;;;;;;;;;;4994806;28;20447;-48
2021/11/08 08:56:30;;;;;;;18.57;9.30;;;;;;;;;;4994668;28;20431;-48
2021/11/08 08:58:56;;;;;;;22.30;9.33;;;;;;;;;;4994549;28;20404;-47
2021/11/08 09:01:23;;;;;;;15.97;9.13;;;;;;;;;;4994716;28;20443;-48
2021/11/08 09:03:50;;;;;;;21.23;10.43;;;;;;;;;;4994594;28;20397;-48
2021/11/08 09:06:17;;;;;;;23.07;9.63;;;;;;;;;;4994509;28;20455;-49
2021/11/08 09:08:43;;;;;;;28.50;10.67;;;;;;;;;;4994250;28;20396;-48
2021/11/08 09:11:09;;;;;;;23.70;9.83;;;;;;;;;;4994516;28;20459;-48
2021/11/08 09:13:36;;;;;;;20.27;9.43;;;;;;;;;;4994594;28;20402;-47
2021/11/08 09:16:04;;;;;;;15.77;8.83;;;;;;;;;;4994474;28;20485;-51
2021/11/08 09:18:30;;;;;;;17.47;7.00;;;;;;;;;;4994019;28;20413;-49
2021/11/08 09:20:56;;;;;;;24.77;8.43;;;;;;;;;;4976993;28;20416;-48
2021/11/08 09:23:22;;;;;;;24.60;8.70;;;;;;;;;;4994306;28;20412;-49
2021/11/08 09:25:48;;;;;;;20.70;7.93;;;;;;;;;;4994303;28;20926;-48
2021/11/08 09:28:14;;;;;;;24.03;7.90;;;;;;;;;;4992742;28;20419;-49
2021/11/08 09:30:44;;;;;;;12.60;6.70;;;;;;;;;;4994194;28;20451;-48
2021/11/08 09:33:10;;;;;;;33.47;7.37;;;;;;;;;;4994176;28;20413;-49
2021/11/08 09:35:37;;;;;;;16.73;7.50;;;;;;;;;;4993638;28;20391;-48
2021/11/08 09:38:06;;;;;;;14.50;8.07;;;;;;;;;;4993373;28;20408;-52
2021/11/08 09:40:32;;;;;;;27.60;8.20;;;;;;;;;;4993942;28;20856;-50
2021/11/08 09:42:59;;;;;;;23.23;7.70;;;;;;;;;;4994039;28;20408;-51
2021/11/08 09:45:25;;;;;;;14.50;6.60;;;;;;;;;;4992771;28;20467;-49
2021/11/08 09:47:52;;;;;;;20.80;8.40;;;;;;;;;;4988601;28;20416;-49
2021/11/08 09:50:19;;;;;;;18.47;7.43;;;;;;;;;;4992165;28;20566;-49
2021/11/08 09:52:47;;;;;;;16.73;6.40;;;;;;;;;;4993569;28;20410;-50
2021/11/08 09:55:14;;;;;;;16.73;6.30;;;;;;;;;;4992249;28;21001;-51
2021/11/08 09:57:40;;;;;;;15.63;6.47;;;;;;;;;;4991783;28;20490;-49
2021/11/08 10:00:15;;;;;;;15.67;6.83;;;;;;;;;;4992439;28;20419;-49
2021/11/08 10:02:47;;;;;;;23.03;7.47;;;;;;;;;;4993541;28;20403;-50
2021/11/08 10:05:13;;;;;;;17.10;7.03;;;;;;;;;;4993455;28;20447;-48
2021/11/08 10:07:39;;;;;;;23.27;7.60;;;;;;;;;;4993421;28;20443;-48
2021/11/08 10:10:06;;;;;;;16.60;7.13;;;;;;;;;;4993355;28;20809;-49
2021/11/08 10:12:33;;;;;;;16.70;6.57;;;;;;;;;;4993133;28;20407;-49
2021/11/08 10:14:59;;;;;;;16.50;6.63;;;;;;;;;;4993238;28;20381;-49
2021/11/08 10:17:28;;;;;;;19.90;7.37;;;;;;;;;;4992968;28;20448;-48
2021/11/08 10:19:54;;;;;;;16.00;6.80;;;;;;;;;;4993315;28;20411;-48
2021/11/08 10:22:21;;;;;;;15.07;6.67;;;;;;;;;;4993461;28;20740;-49
2021/11/08 10:24:49;;;;;;;15.43;6.83;;;;;;;;;;4993218;28;20401;-47
2021/11/08 10:27:17;;;;;;;29.33;7.23;;;;;;;;;;4992945;28;20417;-48
2021/11/08 10:29:45;;;;;;;14.50;7.60;;;;;;;;;;4992956;28;20459;-50
2021/11/08 10:32:11;;;;;;;18.37;7.30;;;;;;;;;;4992990;28;20404;-47
2021/11/08 10:34:56;;;;;;;27.20;7.97;;;;;;;;;;4987076;28;20501;-48
2021/11/08 10:37:23;;;;;;;20.77;8.80;;;;;;;;;;4991889;28;20470;-51
2021/11/08 10:39:49;;;;;;;26.07;8.27;;;;;;;;;;4992051;28;20496;-49
2021/11/08 10:42:20;;;;;;;15.20;7.23;;;;;;;;;;4992759;28;20466;-48
2021/11/08 10:44:46;;;;;;;23.10;6.67;;;;;;;;;;4992810;28;20864;-50
2021/11/08 10:47:13;;;;;;;16.73;8.20;;;;;;;;;;4992629;28;20582;-51
2021/11/08 10:49:42;;;;;;;20.57;7.20;;;;;;;;;;4992872;28;20466;-51
2021/11/08 10:52:09;;;;;;;19.60;6.30;;;;;;;;;;4992535;28;20409;-49
2021/11/08 10:54:37;;;;;;;16.57;6.60;;;;;;;;;;4992672;28;20852;-49
2021/11/08 10:57:05;;;;;;;16.63;6.07;;;;;;;;;;4992836;28;20438;-50
2021/11/08 10:59:42;;;;;;;13.63;6.60;;;;;;;;;;4992411;28;20415;-49
2021/11/08 11:02:12;;;;;;;14.00;5.63;;;;;;;;;;4992605;28;20489;-48
2021/11/08 11:04:46;;;;;;;19.80;6.37;;;;;;;;;;4992298;28;20892;-51
2021/11/08 11:07:12;;;;;;;15.70;6.63;;;;;;;;;;4992327;28;20421;-50
2021/11/08 11:09:39;;;;;;;13.90;6.13;;;;;;;;;;4991991;28;20452;-48
2021/11/08 11:12:14;;;;;;;16.10;6.63;;;;;;;;;;4992812;28;20401;-48
2021/11/08 11:14:40;;;;;;;14.13;6.03;;;;;;;;;;4992469;28;20402;-49
2021/11/08 11:17:07;;;;;;;10.87;5.17;;;;;;;;;;4992115;28;20435;-50
2021/11/08 11:19:34;;;;;;;10.60;5.60;;;;;;;;;;4992171;28;20443;-50
2021/11/08 11:22:03;;;;;;;14.13;5.90;;;;;;;;;;4992066;28;20386;-49
2021/11/08 11:24:42;;;;;;;22.77;6.83;;;;;;;;;;4992239;28;20473;-51
2021/11/08 11:27:16;;;;;;;15.07;4.53;;;;;;;;;;4992169;28;20459;-48
2021/11/08 11:29:42;;;;;;;13.43;6.77;;;;;;;;;;4991964;28;20458;-50
2021/11/08 11:32:19;;;;;;;19.67;5.67;;;;;;;;;;4992263;28;20768;-49
2021/11/08 11:34:45;;;;;;;11.97;5.33;;;;;;;;;;4991696;28;20409;-51
2021/11/08 11:37:12;;;;;;;16.80;5.67;;;;;;;;;;4991738;28;20441;-49
2021/11/08 11:39:38;;;;;;;18.10;5.60;;;;;;;;;;4990905;28;20411;-50
2021/11/08 11:42:04;;;;;;;17.20;6.43;;;;;;;;;;4990261;28;20481;-49
2021/11/08 11:44:30;;;;;;;18.60;6.30;;;;;;;;;;4991489;28;20465;-49
2021/11/08 11:46:57;;;;;;;22.83;6.97;;;;;;;;;;4992202;28;20430;-50
2021/11/08 11:49:24;;;;;;;17.80;7.27;;;;;;;;;;4991374;28;20553;-51
2021/11/08 11:51:52;;;;;;;18.00;6.33;;;;;;;;;;4995462;28;20862;-50
2021/11/08 11:54:19;;;;;;;13.63;5.90;;;;;;;;;;4995252;28;20848;-51
2021/11/08 11:56:46;;;;;;;14.67;6.50;;;;;;;;;;4978140;28;20465;-51
2021/11/08 11:59:13;;;;;;;20.90;6.70;;;;;;;;;;4995591;28;20779;-50
2021/11/08 12:01:40;;;;;;;18.80;6.73;;;;;;;;;;4995698;28;20490;-49
2021/11/08 12:04:06;;;;;;;16.50;7.00;;;;;;;;;;4996648;28;20406;-51
2021/11/08 12:06:34;;;;;;;28.83;8.17;;;;;;;;;;4995421;28;20581;-51
2021/11/08 12:09:00;;;;;;;19.63;6.93;;;;;;;;;;4994848;28;20501;-51
2021/11/08 12:11:47;;;;;;;27.83;6.97;;;;;;;;;;4995039;28;20401;-51
2021/11/08 12:14:18;;;;;;;20.50;6.87;;;;;;;;;;4995562;28;20407;-51
2021/11/08 12:16:54;;;;;;;16.00;6.20;;;;;;;;;;4995487;28;20396;-52
2021/11/08 12:19:22;;;;;;;25.13;9.13;;;;;;;;;;4995276;28;20383;-50
2021/11/08 12:21:48;;;;;;;22.50;7.63;;;;;;;;;;4995297;28;20492;-50
2021/11/08 12:24:18;;;;;;;23.07;7.60;;;;;;;;;;4995322;28;20859;-51
2021/11/08 12:26:44;;;;;;;21.40;7.87;;;;;;;;;;4977742;28;20443;-51
2021/11/08 12:29:13;;;;;;;17.33;7.93;;;;;;;;;;4995072;28;20458;-50
2021/11/08 12:31:39;;;;;;;20.70;8.77;;;;;;;;;;4995211;28;20401;-51
2021/11/08 12:34:07;;;;;;;23.80;8.63;;;;;;;;;;4995134;28;20407;-51
2021/11/08 12:36:33;;;;;;;17.97;7.10;;;;;;;;;;4995061;28;20448;-50
2021/11/08 12:39:10;;;;;;;19.97;8.17;;;;;;;;;;4995251;28;20439;-51
2021/11/08 12:41:46;;;;;;;22.47;9.13;;;;;;;;;;4995273;28;20392;-51
2021/11/08 12:44:13;;;;;;;20.93;8.53;;;;;;;;;;4995214;28;20373;-51
2021/11/08 12:46:41;;;;;;;17.10;8.97;;;;;;;;;;4994951;28;20433;-50
2021/11/08 12:49:26;;;;;;;16.90;8.10;;;;;;;;;;4994635;28;20391;-51
2021/11/08 12:51:59;;;;;;;18.73;10.07;;;;;;;;;;4995083;28;20399;-49
2021/11/08 12:54:26;;;;;;;17.67;9.17;;;;;;;;;;4994864;28;20905;-51
2021/11/08 12:56:52;;;;;;;17.00;8.07;;;;;;;;;;4993429;28;20474;-50
2021/11/08 12:59:24;;;;;;;16.83;8.73;;;;;;;;;;4988995;28;20378;-50
2021/11/08 13:01:54;;;;;;;20.60;7.73;;;;;;;;;;4994402;28;20418;-50
2021/11/08 13:04:30;;;;;;;18.60;8.43;;;;;;;;;;4994837;28;20469;-50
2021/11/08 13:07:04;;;;;;;23.23;8.93;;;;;;;;;;4994495;28;20526;-52
2021/11/08 13:09:39;;;;;;;18.27;7.77;;;;;;;;;;4994308;28;20441;-50
2021/11/08 13:12:10;;;;;;;21.40;7.50;;;;;;;;;;4994524;28;20474;-50
2021/11/08 13:14:36;;;;;;;15.20;7.60;;;;;;;;;;4994471;28;20366;-51
2021/11/08 13:17:08;;;;;;;21.43;8.20;;;;;;;;;;4994308;28;20494;-52
2021/11/08 13:19:43;;;;;;;13.67;7.40;;;;;;;;;;4994122;28;20408;-51
2021/11/08 13:22:15;;;;;;;12.27;7.00;;;;;;;;;;4994179;28;20406;-51
2021/11/08 13:24:41;;;;;;;19.67;6.60;;;;;;;;;;4994450;28;20391;-51
2021/11/08 13:27:08;;;;;;;13.70;6.60;;;;;;;;;;4994280;28;20402;-51
2021/11/08 13:29:34;;;;;;;18.27;7.20;;;;;;;;;;4994016;28;20433;-52
2021/11/08 13:32:07;;;;;;;13.23;6.70;;;;;;;;;;4994080;28;20439;-53
2021/11/08 13:34:33;;;;;;;17.33;6.50;;;;;;;;;;4994038;28;20427;-52
2021/11/08 13:37:00;;;;;;;14.03;5.93;;;;;;;;;;4993732;28;20423;-52
2021/11/08 13:39:26;;;;;;;22.03;7.87;;;;;;;;;;4993751;28;20409;-52
2021/11/08 13:41:52;;;;;;;15.63;6.30;;;;;;;;;;4994037;28;20412;-51
2021/11/08 13:44:18;;;;;;;17.90;7.47;;;;;;;;;;4993984;28;20412;-52
2021/11/08 13:46:48;;;;;;;18.07;7.17;;;;;;;;;;4993693;28;20435;-51
2021/11/08 13:49:16;;;;;;;17.03;6.60;;;;;;;;;;4993337;28;20555;-50
2021/11/08 13:51:46;;;;;;;18.60;7.17;;;;;;;;;;4993817;28;20901;-51
2021/11/08 13:54:31;;;;;;;12.43;6.33;;;;;;;;;;4993707;28;20780;-51
2021/11/08 13:57:00;;;;;;;18.30;7.90;;;;;;;;;;4993454;28;20831;-50
2021/11/08 13:59:27;;;;;;;16.30;6.13;;;;;;;;;;4993481;28;20408;-52
2021/11/08 14:02:05;;;;;;;16.87;6.60;;;;;;;;;;4993343;28;20411;-51
2021/11/08 14:04:32;;;;;;;12.33;6.77;;;;;;;;;;4993583;28;20424;-51
2021/11/08 14:06:58;;;;;;;13.80;6.43;;;;;;;;;;4993397;28;20839;-52
2021/11/08 14:09:27;;;;;;;17.43;6.50;;;;;;;;;;4993083;28;20478;-52
2021/11/08 14:11:54;;;;;;;15.47;6.77;;;;;;;;;;4993442;28;20428;-50
2021/11/08 14:14:22;;;;;;;16.63;6.60;;;;;;;;;;4992595;28;20403;-52
2021/11/08 14:16:49;;;;;;;14.13;5.90;;;;;;;;;;4993013;28;20427;-52
2021/11/08 14:19:16;;;;;;;12.37;6.53;;;;;;;;;;4993125;28;20448;-51
2021/11/08 14:21:43;;;;;;;13.00;6.27;;;;;;;;;;4993298;28;20388;-51
2021/11/08 14:24:10;;;;;;;13.70;5.90;;;;;;;;;;4993199;28;20389;-51
2021/11/08 14:26:38;;;;;;;14.07;6.03;;;;;;;;;;4993009;28;20408;-52
2021/11/08 14:29:24;;;;;;;24.23;6.77;;;;;;;;;;4992809;28;20886;-52
2021/11/08 14:32:05;;;;;;;15.67;6.40;;;;;;;;;;4992933;28;20900;-52
2021/11/08 14:34:33;;;;;;;18.00;6.20;;;;;;;;;;4993134;28;20382;-51
2021/11/08 14:36:59;;;;;;;14.33;5.57;;;;;;;;;;4992794;28;20443;-51
2021/11/08 14:39:28;;;;;;;15.87;5.70;;;;;;;;;;4992625;28;20382;-51
2021/11/08 14:41:54;;;;;;;17.80;5.90;;;;;;;;;;4992909;28;20472;-49
2021/11/08 14:44:20;;;;;;;14.80;5.90;;;;;;;;;;4992862;28;20888;-51
2021/11/08 14:46:50;;;;;;;17.20;5.97;;;;;;;;;;4992614;28;20493;-49
2021/11/08 14:49:24;;;;;;;16.43;5.97;;;;;;;;;;4992544;28;20464;-51
2021/11/08 14:51:58;;;;;;;15.17;5.70;;;;;;;;;;4992736;28;20403;-49
2021/11/08 14:54:24;;;;;;;10.67;5.83;;;;;;;;;;4992747;28;20397;-51
2021/11/08 14:56:52;;;;;;;21.23;6.80;;;;;;;;;;4992840;28;20523;-52
2021/11/08 14:59:24;;;;;;;14.80;5.13;;;;;;;;;;4992577;28;20848;-51
2021/11/08 15:02:00;;;;;;;17.23;6.33;;;;;;;;;;4992612;28;20438;-51
2021/11/08 15:04:26;;;;;;;14.70;5.83;;;;;;;;;;4992646;28;20411;-50
2021/11/08 15:07:03;;;;;;;17.53;5.80;;;;;;;;;;4992598;28;20517;-52
2021/11/08 15:09:52;;;;;;;23.97;6.20;;;;;;;;;;4991199;28;20435;-51
2021/11/08 15:12:22;;;;;;;25.23;6.33;;;;;;;;;;4992514;28;20411;-50
2021/11/08 15:14:56;;;;;;;15.03;5.90;;;;;;;;;;4992186;28;20904;-50
2021/11/08 15:17:48;;;;;;;20.93;5.60;;;;;;;;;;4992157;28;20784;-50
2021/11/08 15:20:22;;;;;;;17.20;6.67;;;;;;;;;;4990292;28;20460;-51
2021/11/08 15:22:57;;;;;;;18.10;5.43;;;;;;;;;;4992293;28;20422;-52
2021/11/08 15:25:34;;;;;;;16.93;6.00;;;;;;;;;;4994526;28;20467;-51
2021/11/08 15:28:01;;;;;;;21.33;6.47;;;;;;;;;;4995118;28;20496;-50
2021/11/08 15:30:28;;;;;;;13.10;5.70;;;;;;;;;;4995226;28;20629;-49
2021/11/08 15:33:33;;;;;;;21.00;6.00;;;;;;;;;;4995593;28;20416;-52
2021/11/08 15:36:00;;;;;;;14.90;5.80;;;;;;;;;;4955058;29;20479;-51
2021/11/08 15:38:29;;;;;;;16.63;6.07;;;;;;;;;;4954909;29;20477;-50
2021/11/08 15:40:55;;;;;;;23.80;6.73;;;;;;;;;;4975468;28;20415;-50
2021/11/08 15:43:22;;;;;;;21.10;8.20;;;;;;;;;;4996131;28;20400;-51
2021/11/08 15:45:50;;;;;;;13.90;6.33;;;;;;;;;;4995918;28;20416;-51
2021/11/08 15:48:16;;;;;;;20.43;5.47;;;;;;;;;;4995591;28;20420;-51
2021/11/08 15:50:42;;;;;;;17.07;5.67;;;;;;;;;;4995984;28;20540;-52
2021/11/08 15:53:09;;;;;;;18.93;5.30;;;;;;;;;;4995979;28;20444;-51
2021/11/08 15:55:38;;;;;;;13.13;4.67;;;;;;;;;;4995765;28;20423;-50
2021/11/08 15:58:05;;;;;;;18.00;6.40;;;;;;;;;;4995592;28;20397;-51
2021/11/08 16:00:31;;;;;;;18.43;5.50;;;;;;;;;;4995631;28;20620;-51
2021/11/08 16:02:57;;;;;;;15.00;5.17;;;;;;;;;;4995699;28;20400;-51
2021/11/08 16:05:23;;;;;;;19.27;6.07;;;;;;;;;;4995805;28;20491;-51
2021/11/08 16:07:49;;;;;;;15.30;5.50;;;;;;;;;;4995305;28;20412;-51
2021/11/08 16:10:15;;;;;;;26.53;6.97;;;;;;;;;;4995519;28;20455;-50
2021/11/08 16:12:41;;;;;;;15.03;5.20;;;;;;;;;;4995581;28;20399;-51
2021/11/08 16:15:07;;;;;;;14.00;5.13;;;;;;;;;;4995268;28;20881;-51
2021/11/08 16:17:33;;;;;;;18.77;5.60;;;;;;;;;;4995097;28;20789;-51
2021/11/08 16:19:59;;;;;;;13.17;5.17;;;;;;;;;;4995658;28;20404;-49
2021/11/08 16:22:25;;;;;;;11.83;5.40;;;;;;;;;;4995316;28;20413;-50
2021/11/08 16:24:51;;;;;;;18.00;6.07;;;;;;;;;;4995359;28;20453;-49
2021/11/08 16:27:17;;;;;;;19.53;5.70;;;;;;;;;;4995172;28;20979;-50